createdAt,value
2022-08-01T00:00:56.385Z,89.54
2022-08-01T00:03:23.457Z,89.72
2022-08-01T00:05:50.424Z,90.77
2022-08-01T00:08:17.358Z,91.88
2022-08-01T00:10:44.659Z,92.10
2022-08-01T00:13:14.063Z,92.51
2022-08-01T00:15:41.026Z,92.99
2022-08-01T00:18:12.425Z,94.00
2022-08-01T00:20:41.849Z,94.37
2022-08-01T00:23:08.799Z,95.27
2022-08-01T00:25:35.948Z,95.71
2022-08-01T00:28:04.034Z,97.00
2022-08-01T00:30:32.118Z,97.65
2022-08-01T00:32:59.762Z,99.58
2022-08-01T00:35:29.410Z,98.91
2022-08-01T00:37:56.425Z,99.37
2022-08-01T00:40:24.032Z,99.85
2022-08-01T00:42:51.104Z,100.00
2022-08-01T00:45:18.372Z,100.00
2022-08-01T00:47:45.929Z,100.00
2022-08-01T00:50:13.021Z,100.00
2022-08-01T00:52:41.895Z,100.00
2022-08-01T00:55:14.942Z,100.00
2022-08-01T00:58:02.859Z,99.79
2022-08-01T01:00:30.575Z,99.39
2022-08-01T01:03:03.746Z,99.39
2022-08-01T01:05:37.712Z,98.37
2022-08-01T01:08:13.852Z,98.27
2022-08-01T01:10:49.092Z,98.40
2022-08-01T01:13:19.054Z,97.28
2022-08-01T01:16:11.139Z,97.53
2022-08-01T01:18:46.161Z,97.73
2022-08-01T01:21:47.403Z,97.68
2022-08-01T01:24:43.390Z,97.67
2022-08-01T01:27:16.629Z,96.96
2022-08-01T01:30:00.459Z,96.51
2022-08-01T01:32:38.225Z,97.54
2022-08-01T01:35:25.798Z,97.38
2022-08-01T01:38:08.847Z,97.01
2022-08-01T01:40:38.056Z,97.13
2022-08-01T01:43:14.530Z,96.81
2022-08-01T01:45:46.802Z,96.49
2022-08-01T01:48:20.055Z,96.54
2022-08-01T01:50:52.419Z,96.54
2022-08-01T01:53:23.471Z,96.03
2022-08-01T01:55:56.840Z,96.15
2022-08-01T01:58:25.551Z,95.77
2022-08-01T02:00:54.603Z,96.06
2022-08-01T02:03:23.138Z,95.71
2022-08-01T02:05:53.062Z,95.30
2022-08-01T02:08:21.686Z,94.71
2022-08-01T02:11:10.139Z,94.28
2022-08-01T02:13:39.298Z,93.72
2022-08-01T02:16:07.988Z,94.11
2022-08-01T02:18:35.043Z,94.18
2022-08-01T02:21:07.624Z,93.81
2022-08-01T02:23:38.273Z,94.15
2022-08-01T02:26:11.686Z,93.80
2022-08-01T02:28:48.732Z,94.11
2022-08-01T02:31:20.219Z,95.16
2022-08-01T02:33:55.323Z,96.43
2022-08-01T02:36:32.432Z,94.70
2022-08-01T02:39:02.907Z,93.74
2022-08-01T02:41:32.629Z,93.62
2022-08-01T02:44:07.893Z,93.34
2022-08-01T02:46:39.656Z,93.01
2022-08-01T02:49:10.369Z,93.40
2022-08-01T02:51:40.006Z,93.07
2022-08-01T02:54:09.314Z,93.51
2022-08-01T02:56:41.784Z,93.57
2022-08-01T02:59:13.785Z,93.79
2022-08-01T03:01:44.246Z,93.70
2022-08-01T03:04:13.125Z,93.24
2022-08-01T03:06:45.279Z,93.89
2022-08-01T03:09:13.628Z,93.24
2022-08-01T03:11:43.289Z,93.47
2022-08-01T03:14:12.762Z,93.56
2022-08-01T03:16:46.726Z,93.94
2022-08-01T03:19:18.486Z,93.41
2022-08-01T03:21:47.467Z,93.00
2022-08-01T03:24:16.473Z,93.35
2022-08-01T03:26:44.772Z,93.72
2022-08-01T03:29:16.506Z,93.30
2022-08-01T03:31:47.152Z,92.48
2022-08-01T03:34:14.726Z,92.71
2022-08-01T03:36:57.217Z,91.79
2022-08-01T03:39:31.341Z,92.75
2022-08-01T03:42:09.609Z,93.50
2022-08-01T03:44:40.182Z,94.64
2022-08-01T03:47:09.756Z,93.61
2022-08-01T03:49:43.708Z,93.55
2022-08-01T03:52:12.432Z,92.70
2022-08-01T03:54:48.719Z,93.03
2022-08-01T03:57:23.247Z,91.91
2022-08-01T04:00:10.327Z,92.24
2022-08-01T04:02:43.792Z,92.27
2022-08-01T04:05:11.482Z,91.93
2022-08-01T04:07:40.321Z,91.90
2022-08-01T04:10:08.027Z,91.38
2022-08-01T04:12:35.540Z,91.36
2022-08-01T04:15:05.676Z,91.52
2022-08-01T04:17:34.973Z,90.70
2022-08-01T04:20:01.831Z,90.06
2022-08-01T04:22:29.336Z,91.22
2022-08-01T04:24:58.629Z,90.92
2022-08-01T04:27:50.427Z,90.21
2022-08-01T04:30:24.015Z,90.05
2022-08-01T04:32:55.668Z,89.52
2022-08-01T04:36:01.630Z,89.33
2022-08-01T04:38:14.083Z,88.69
2022-08-01T04:40:42.560Z,88.56
2022-08-01T04:43:09.670Z,88.12
2022-08-01T04:45:37.551Z,88.57
2022-08-01T04:48:07.693Z,88.78
2022-08-01T04:50:36.306Z,88.28
2022-08-01T04:53:06.235Z,89.00
2022-08-01T04:55:33.483Z,89.49
2022-08-01T04:58:03.721Z,88.80
2022-08-01T05:00:30.864Z,87.67
2022-08-01T05:02:58.508Z,86.40
2022-08-01T05:05:27.359Z,85.25
2022-08-01T05:07:54.536Z,85.09
2022-08-01T05:10:21.635Z,85.56
2022-08-01T05:12:48.660Z,85.11
2022-08-01T05:15:15.910Z,84.33
2022-08-01T05:17:45.885Z,84.58
2022-08-01T05:20:13.315Z,84.35
2022-08-01T05:22:42.112Z,85.02
2022-08-01T05:25:09.572Z,85.66
2022-08-01T05:27:40.661Z,85.44
2022-08-01T05:30:09.770Z,86.08
2022-08-01T05:32:37.806Z,85.55
2022-08-01T05:35:05.685Z,86.36
2022-08-01T05:37:32.664Z,86.82
2022-08-01T05:40:00.122Z,85.70
2022-08-01T05:42:27.499Z,83.84
2022-08-01T05:44:54.608Z,82.83
2022-08-01T05:47:22.167Z,81.97
2022-08-01T05:49:51.967Z,82.63
2022-08-01T05:52:19.371Z,80.25
2022-08-01T05:54:46.585Z,79.04
2022-08-01T05:57:13.609Z,79.27
2022-08-01T05:59:42.345Z,79.00
2022-08-01T06:02:10.394Z,79.10
2022-08-01T06:04:40.441Z,75.39
2022-08-01T06:07:07.655Z,75.11
2022-08-01T06:09:35.130Z,75.40
2022-08-01T06:12:06.325Z,76.17
2022-08-01T06:14:33.876Z,74.78
2022-08-01T06:17:02.057Z,71.46
2022-08-01T06:19:29.559Z,71.15
2022-08-01T06:21:56.577Z,70.40
2022-08-01T06:24:25.165Z,69.37
2022-08-01T06:26:53.037Z,69.53
2022-08-01T06:29:20.575Z,66.05
2022-08-01T06:31:48.638Z,67.94
2022-08-01T06:34:16.309Z,67.55
2022-08-01T06:36:43.348Z,64.27
2022-08-01T06:39:10.763Z,65.20
2022-08-01T06:41:37.967Z,66.51
2022-08-01T06:44:05.632Z,66.68
2022-08-01T06:46:39.352Z,65.02
2022-08-01T06:49:06.753Z,65.43
2022-08-01T06:51:33.969Z,65.15
2022-08-01T06:54:01.170Z,64.16
2022-08-01T06:56:29.034Z,63.64
2022-08-01T06:59:02.247Z,63.38
2022-08-01T07:01:35.016Z,61.43
2022-08-01T07:04:04.168Z,60.70
2022-08-01T07:06:32.711Z,60.22
2022-08-01T07:09:08.238Z,61.40
2022-08-01T07:11:39.292Z,60.47
2022-08-01T07:14:06.642Z,60.24
2022-08-01T07:16:33.602Z,60.26
2022-08-01T07:19:03.878Z,59.71
2022-08-01T07:21:40.222Z,55.34
2022-08-01T07:24:13.410Z,53.63
2022-08-01T07:26:52.996Z,53.34
2022-08-01T07:29:25.940Z,53.63
2022-08-01T07:31:57.550Z,54.37
2022-08-01T07:34:28.577Z,55.93
2022-08-01T07:36:58.204Z,59.42
2022-08-01T07:39:25.567Z,58.51
2022-08-01T07:42:07.363Z,58.52
2022-08-01T07:44:37.372Z,59.63
2022-08-01T07:47:06.012Z,60.49
2022-08-01T07:49:37.694Z,64.15
2022-08-01T07:52:08.036Z,60.79
2022-08-01T07:54:35.598Z,61.67
2022-08-01T07:57:04.312Z,61.28
2022-08-01T07:59:31.879Z,63.76
2022-08-01T08:01:59.087Z,61.55
2022-08-01T08:04:27.764Z,63.78
2022-08-01T08:06:57.448Z,65.24
2022-08-01T08:09:24.582Z,64.37
2022-08-01T08:11:57.169Z,65.07
2022-08-01T08:14:32.574Z,64.40
2022-08-01T08:17:01.829Z,66.44
2022-08-01T08:19:38.540Z,64.31
2022-08-01T08:22:08.257Z,67.18
2022-08-01T08:24:46.041Z,68.30
2022-08-01T08:27:14.513Z,63.79
2022-08-01T08:29:42.862Z,63.33
2022-08-01T08:32:12.903Z,64.14
2022-08-01T08:34:40.329Z,65.45
2022-08-01T08:37:09.429Z,63.36
2022-08-01T08:39:41.955Z,66.60
2022-08-01T08:42:11.037Z,61.33
2022-08-01T08:44:43.531Z,61.96
2022-08-01T08:47:20.188Z,63.23
2022-08-01T08:49:50.411Z,57.21
2022-08-01T08:52:21.143Z,53.78
2022-08-01T08:54:49.500Z,50.79
2022-08-01T08:57:17.141Z,53.08
2022-08-01T08:59:45.504Z,47.86
2022-08-01T09:02:13.740Z,43.78
2022-08-01T09:04:42.014Z,39.46
2022-08-01T09:07:09.967Z,41.33
2022-08-01T09:09:41.749Z,35.10
2022-08-01T09:12:09.729Z,34.71
2022-08-01T09:14:48.512Z,34.59
2022-08-01T09:17:21.242Z,33.29
2022-08-01T09:19:59.227Z,32.05
2022-08-01T09:22:27.841Z,32.73
2022-08-01T09:25:10.115Z,37.39
2022-08-01T09:27:44.282Z,40.69
2022-08-01T09:30:20.733Z,42.34
2022-08-01T09:33:06.543Z,44.66
2022-08-01T09:35:56.287Z,41.13
2022-08-01T09:38:27.809Z,41.73
2022-08-01T09:41:01.635Z,41.19
2022-08-01T09:43:32.286Z,43.83
2022-08-01T09:46:12.595Z,40.87
2022-08-01T09:48:55.601Z,43.33
2022-08-01T09:52:00.012Z,45.97
2022-08-01T09:54:34.501Z,48.41
2022-08-01T09:57:29.885Z,45.47
2022-08-01T10:00:01.812Z,46.75
2022-08-01T10:02:44.526Z,47.12
2022-08-01T10:05:18.968Z,48.06
2022-08-01T10:08:00.694Z,48.59
2022-08-01T10:10:31.385Z,48.47
2022-08-01T10:13:01.014Z,50.09
2022-08-01T10:15:37.236Z,48.60
2022-08-01T10:18:25.237Z,43.57
2022-08-01T10:20:56.756Z,46.64
2022-08-01T10:23:40.184Z,44.26
2022-08-01T10:26:11.048Z,42.21
2022-08-01T10:28:40.507Z,40.41
2022-08-01T10:31:15.964Z,39.28
2022-08-01T10:33:52.672Z,38.06
2022-08-01T10:36:22.960Z,37.05
2022-08-01T10:38:56.489Z,36.79
2022-08-01T10:41:25.942Z,36.95
2022-08-01T10:43:56.356Z,35.32
2022-08-01T10:46:26.309Z,34.21
2022-08-01T10:49:08.410Z,34.38
2022-08-01T10:51:52.483Z,34.20
2022-08-01T10:54:26.329Z,35.05
2022-08-01T10:57:00.968Z,38.43
2022-08-01T10:59:49.084Z,38.69
2022-08-01T11:02:32.623Z,39.05
2022-08-01T11:05:09.543Z,40.31
2022-08-01T11:07:49.803Z,40.01
2022-08-01T11:10:40.392Z,40.21
2022-08-01T11:13:13.490Z,43.33
2022-08-01T11:15:50.572Z,43.56
2022-08-01T11:18:30.762Z,44.70
2022-08-01T11:21:58.692Z,47.46
2022-08-01T11:23:55.256Z,44.42
2022-08-01T11:26:29.448Z,45.41
2022-08-01T11:29:23.466Z,43.39
2022-08-01T11:31:54.033Z,43.49
2022-08-01T11:34:53.495Z,41.74
2022-08-01T11:37:30.672Z,43.36
2022-08-01T11:40:18.670Z,42.12
2022-08-01T11:42:46.997Z,42.00
2022-08-01T11:45:18.587Z,42.29
2022-08-01T11:47:50.947Z,41.13
2022-08-01T11:50:30.923Z,38.48
2022-08-01T11:53:00.322Z,37.85
2022-08-01T11:55:31.368Z,38.27
2022-08-01T11:58:21.930Z,40.33
2022-08-01T12:00:54.248Z,38.51
2022-08-01T12:03:34.351Z,37.84
2022-08-01T12:06:02.523Z,39.08
2022-08-01T12:08:37.738Z,40.85
2022-08-01T12:11:07.155Z,39.93
2022-08-01T12:13:46.537Z,41.14
2022-08-01T12:16:15.626Z,42.69
2022-08-01T12:18:43.829Z,43.81
2022-08-01T12:21:11.147Z,45.04
2022-08-01T12:23:39.039Z,45.96
2022-08-01T12:26:06.341Z,47.29
2022-08-01T12:28:40.727Z,48.07
2022-08-01T12:31:08.898Z,48.49
2022-08-01T12:33:36.347Z,49.44
2022-08-01T12:36:03.946Z,49.09
2022-08-01T12:38:34.086Z,51.99
2022-08-01T12:41:01.819Z,52.14
2022-08-01T12:43:32.961Z,53.22
2022-08-01T12:46:01.949Z,53.85
2022-08-01T12:48:32.706Z,53.72
2022-08-01T12:51:03.475Z,53.88
2022-08-01T12:53:39.764Z,53.14
2022-08-01T12:56:10.662Z,53.17
2022-08-01T12:58:38.250Z,51.52
2022-08-01T13:01:11.293Z,50.95
2022-08-01T13:03:39.102Z,49.10
2022-08-01T13:06:19.051Z,47.38
2022-08-01T13:08:47.145Z,46.73
2022-08-01T13:11:19.144Z,47.05
2022-08-01T13:13:51.670Z,47.08
2022-08-01T13:16:31.035Z,46.86
2022-08-01T13:19:07.220Z,48.57
2022-08-01T13:21:52.583Z,49.73
2022-08-01T13:24:30.737Z,49.80
2022-08-01T13:27:01.599Z,50.20
2022-08-01T13:29:36.296Z,48.37
2022-08-01T13:32:27.922Z,48.11
2022-08-01T13:35:10.221Z,47.08
2022-08-01T13:37:38.493Z,47.26
2022-08-01T13:40:11.550Z,46.02
2022-08-01T13:42:39.871Z,45.75
2022-08-01T13:45:14.771Z,47.39
2022-08-01T13:48:12.089Z,47.23
2022-08-01T13:50:33.239Z,46.22
2022-08-01T13:53:02.740Z,45.90
2022-08-01T13:55:34.624Z,45.90
2022-08-01T13:58:03.854Z,45.98
2022-08-01T14:00:33.469Z,46.65
2022-08-01T14:03:00.836Z,48.01
2022-08-01T14:05:28.181Z,44.69
2022-08-01T14:08:00.968Z,45.21
2022-08-01T14:10:28.516Z,44.39
2022-08-01T14:12:59.142Z,43.82
2022-08-01T14:15:39.284Z,43.74
2022-08-01T14:18:10.578Z,45.44
2022-08-01T14:20:39.432Z,44.68
2022-08-01T14:23:08.889Z,45.25
2022-08-01T14:26:04.239Z,45.35
2022-08-01T14:28:29.114Z,44.22
2022-08-01T14:31:01.465Z,42.66
2022-08-01T14:33:28.903Z,43.39
2022-08-01T14:36:05.393Z,43.96
2022-08-01T14:38:35.225Z,44.19
2022-08-01T14:41:04.512Z,44.09
2022-08-01T14:43:33.796Z,44.32
2022-08-01T14:46:02.159Z,43.27
2022-08-01T14:48:31.597Z,43.90
2022-08-01T14:51:05.278Z,46.17
2022-08-01T14:53:34.322Z,44.97
2022-08-01T14:56:05.765Z,45.21
2022-08-01T14:58:35.436Z,46.29
2022-08-01T15:01:07.025Z,45.58
2022-08-01T15:03:36.323Z,44.69
2022-08-01T15:06:03.447Z,44.71
2022-08-01T15:08:31.259Z,45.41
2022-08-01T15:10:58.225Z,45.42
2022-08-01T15:13:25.503Z,47.02
2022-08-01T15:15:52.888Z,45.80
2022-08-01T15:18:24.819Z,45.92
2022-08-01T15:20:51.940Z,46.94
2022-08-01T15:23:20.394Z,46.75
2022-08-01T15:25:47.586Z,47.80
2022-08-01T15:28:14.846Z,47.78
2022-08-01T15:30:42.415Z,48.79
2022-08-01T15:33:09.503Z,50.83
2022-08-01T15:35:39.502Z,51.46
2022-08-01T15:38:07.263Z,52.12
2022-08-01T15:40:35.767Z,51.92
2022-08-01T15:43:03.845Z,53.67
2022-08-01T15:45:47.226Z,55.32
2022-08-01T15:48:17.712Z,55.61
2022-08-01T15:50:45.147Z,55.37
2022-08-01T15:53:12.575Z,56.31
2022-08-01T15:55:40.080Z,55.87
2022-08-01T15:58:07.799Z,55.26
2022-08-01T16:00:38.657Z,54.07
2022-08-01T16:03:07.978Z,54.24
2022-08-01T16:05:41.084Z,52.26
2022-08-01T16:08:12.392Z,53.03
2022-08-01T16:10:39.995Z,52.66
2022-08-01T16:13:07.987Z,52.59
2022-08-01T16:15:37.857Z,52.31
2022-08-01T16:18:13.194Z,53.42
2022-08-01T16:20:45.443Z,52.00
2022-08-01T16:23:17.118Z,54.03
2022-08-01T16:25:45.021Z,54.25
2022-08-01T16:28:12.484Z,54.29
2022-08-01T16:30:52.041Z,56.16
2022-08-01T16:33:50.235Z,56.67
2022-08-01T16:36:16.975Z,55.46
2022-08-01T16:38:45.439Z,56.57
2022-08-01T16:41:19.227Z,57.32
2022-08-01T16:43:53.700Z,58.10
2022-08-01T16:46:25.334Z,57.27
2022-08-01T16:48:53.864Z,58.54
2022-08-01T16:51:21.530Z,58.63
2022-08-01T16:53:48.690Z,59.70
2022-08-01T16:56:21.614Z,59.99
2022-08-01T16:58:49.191Z,59.32
2022-08-01T17:01:58.737Z,59.32
2022-08-01T17:04:08.671Z,60.21
2022-08-01T17:06:36.019Z,59.99
2022-08-01T17:09:04.722Z,61.11
2022-08-01T17:11:37.301Z,61.34
2022-08-01T17:14:05.976Z,62.04
2022-08-01T17:16:33.118Z,62.06
2022-08-01T17:19:00.672Z,63.60
2022-08-01T17:21:28.037Z,64.50
2022-08-01T17:23:55.207Z,65.46
2022-08-01T17:26:22.884Z,64.99
2022-08-01T17:28:52.378Z,65.07
2022-08-01T17:31:19.735Z,65.93
2022-08-01T17:33:50.549Z,66.27
2022-08-01T17:36:21.357Z,66.94
2022-08-01T17:38:48.663Z,66.38
2022-08-01T17:41:16.020Z,66.79
2022-08-01T17:43:43.384Z,67.01
2022-08-01T17:46:10.836Z,66.60
2022-08-01T17:48:37.852Z,67.28
2022-08-01T17:51:07.070Z,66.67
2022-08-01T17:53:34.356Z,66.99
2022-08-01T17:56:05.772Z,67.14
2022-08-01T17:58:50.466Z,67.54
2022-08-01T18:01:19.342Z,68.02
2022-08-01T18:03:46.762Z,69.22
2022-08-01T18:06:17.774Z,71.45
2022-08-01T18:08:47.897Z,70.92
2022-08-01T18:11:18.358Z,71.57
2022-08-01T18:13:48.979Z,71.49
2022-08-01T18:16:17.432Z,72.09
2022-08-01T18:18:44.593Z,73.16
2022-08-01T18:21:12.690Z,73.45
2022-08-01T18:23:51.216Z,74.23
2022-08-01T18:26:22.896Z,75.06
2022-08-01T18:28:50.213Z,75.58
2022-08-01T18:31:17.966Z,76.01
2022-08-01T18:33:48.749Z,75.25
2022-08-01T18:36:32.335Z,74.94
2022-08-01T18:39:05.452Z,75.34
2022-08-01T18:41:37.327Z,75.49
2022-08-01T18:44:07.918Z,75.77
2022-08-01T18:46:39.840Z,76.37
2022-08-01T18:49:12.056Z,76.79
2022-08-01T18:51:45.325Z,77.59
2022-08-01T18:54:17.098Z,78.44
2022-08-01T18:56:47.391Z,78.69
2022-08-01T18:59:15.098Z,78.20
2022-08-01T19:01:42.261Z,78.55
2022-08-01T19:04:13.340Z,79.09
2022-08-01T19:06:40.815Z,79.11
2022-08-01T19:09:08.337Z,79.17
2022-08-01T19:11:36.585Z,79.72
2022-08-01T19:14:03.960Z,80.21
2022-08-01T19:16:31.610Z,79.82
2022-08-01T19:18:58.725Z,79.55
2022-08-01T19:21:28.241Z,77.58
2022-08-01T19:24:13.718Z,76.78
2022-08-01T19:26:45.698Z,76.42
2022-08-01T19:29:35.755Z,76.19
2022-08-01T19:32:11.637Z,76.90
2022-08-01T19:34:54.730Z,76.79
2022-08-01T19:37:27.273Z,77.42
2022-08-01T19:39:55.615Z,77.50
2022-08-01T19:42:24.776Z,77.50
2022-08-01T19:44:55.271Z,77.34
2022-08-01T19:47:22.572Z,77.21
2022-08-01T19:49:49.632Z,77.59
2022-08-01T19:52:20.445Z,76.93
2022-08-01T19:54:47.942Z,76.51
2022-08-01T19:57:18.620Z,75.88
2022-08-01T19:59:52.024Z,78.55
2022-08-01T20:02:21.878Z,94.55
2022-08-01T20:04:51.668Z,100.00
2022-08-01T20:07:21.720Z,100.00
2022-08-01T20:09:54.235Z,100.00
2022-08-01T20:12:23.156Z,100.00
2022-08-01T20:14:58.564Z,100.00
2022-08-01T20:17:26.101Z,100.00
2022-08-01T20:19:53.349Z,100.00
2022-08-01T20:22:26.864Z,100.00
2022-08-01T20:24:59.036Z,100.00
2022-08-01T20:27:28.547Z,100.00
2022-08-01T20:30:00.841Z,100.00
2022-08-01T20:32:31.407Z,100.00
2022-08-01T20:35:01.513Z,100.00
2022-08-01T20:37:49.796Z,100.00
2022-08-01T20:40:16.661Z,100.00
2022-08-01T20:42:45.601Z,100.00
2022-08-01T20:45:18.330Z,100.00
2022-08-01T20:47:47.032Z,100.00
2022-08-01T20:50:53.998Z,100.00
2022-08-01T20:53:24.286Z,100.00
2022-08-01T20:56:20.605Z,100.00
2022-08-01T20:58:53.305Z,100.00
2022-08-01T21:01:32.141Z,100.00
2022-08-01T21:04:08.627Z,100.00
2022-08-01T21:06:42.609Z,100.00
2022-08-01T21:09:13.492Z,100.00
2022-08-01T21:11:50.264Z,100.00
2022-08-01T21:14:21.599Z,100.00
2022-08-01T21:17:05.560Z,100.00
2022-08-01T21:19:34.464Z,100.00
2022-08-01T21:22:11.662Z,100.00
2022-08-01T21:24:58.334Z,100.00
2022-08-01T21:27:33.635Z,100.00
2022-08-01T21:30:06.525Z,100.00
2022-08-01T21:32:35.070Z,100.00
2022-08-01T21:35:07.192Z,100.00
2022-08-01T21:37:45.352Z,100.00
2022-08-01T21:40:24.097Z,100.00
2022-08-01T21:42:53.644Z,100.00
2022-08-01T21:45:24.007Z,100.00
2022-08-01T21:47:52.603Z,100.00
2022-08-01T21:50:20.483Z,100.00
2022-08-01T21:53:05.085Z,100.00
2022-08-01T21:56:02.577Z,100.00
2022-08-01T21:58:57.111Z,100.00
2022-08-01T22:01:53.158Z,100.00
2022-08-01T22:04:33.161Z,100.00
2022-08-01T22:07:02.878Z,100.00
2022-08-01T22:09:31.463Z,100.00
2022-08-01T22:12:07.829Z,100.00
2022-08-01T22:14:44.313Z,100.00
2022-08-01T22:17:23.186Z,100.00
2022-08-01T22:19:54.211Z,100.00
2022-08-01T22:22:29.391Z,100.00
2022-08-01T22:25:13.234Z,100.00
2022-08-01T22:28:06.202Z,100.00
2022-08-01T22:30:39.482Z,100.00
2022-08-01T22:33:16.206Z,100.00
2022-08-01T22:35:47.439Z,100.00
2022-08-01T22:38:16.699Z,100.00
2022-08-01T22:40:49.557Z,100.00
2022-08-01T22:43:41.953Z,100.00
2022-08-01T22:46:46.415Z,100.00
2022-08-01T22:49:35.308Z,100.00
2022-08-01T22:52:17.746Z,100.00
2022-08-01T22:54:50.661Z,100.00
2022-08-01T22:57:50.652Z,100.00
2022-08-01T23:00:18.516Z,100.00
2022-08-01T23:03:08.674Z,100.00
2022-08-01T23:05:42.115Z,100.00
2022-08-01T23:08:20.942Z,100.00
2022-08-01T23:10:48.508Z,100.00
2022-08-01T23:13:17.551Z,100.00
2022-08-01T23:15:52.445Z,100.00
2022-08-01T23:18:26.204Z,100.00
2022-08-01T23:20:57.761Z,100.00
2022-08-01T23:23:31.440Z,100.00
2022-08-01T23:26:01.307Z,100.00
2022-08-01T23:28:31.650Z,100.00
2022-08-01T23:30:59.046Z,100.00
2022-08-01T23:33:26.275Z,100.00
2022-08-01T23:35:53.560Z,100.00
2022-08-01T23:38:20.851Z,100.00
2022-08-01T23:40:48.123Z,100.00
2022-08-01T23:43:17.591Z,100.00
2022-08-01T23:46:02.560Z,100.00
2022-08-01T23:48:33.837Z,100.00
2022-08-01T23:51:01.177Z,100.00
2022-08-01T23:53:30.765Z,100.00
2022-08-01T23:55:59.228Z,100.00
2022-08-01T23:58:29.858Z,100.00
